createdAt,value
2019-01-14T00:28:51.010Z,6.00
2019-01-14T00:45:44.960Z,6.00
2019-01-14T01:14:22.744Z,5.70
2019-01-14T01:17:06.484Z,5.80
2019-01-14T01:23:31.558Z,5.50
2019-01-14T01:26:09.028Z,5.50
2019-01-14T01:32:59.249Z,5.40
2019-01-14T01:35:35.345Z,5.40
2019-01-14T09:52:33.515Z,4.20
2019-01-14T10:11:14.016Z,4.40
2019-01-14T10:21:44.707Z,4.30
2019-01-14T10:24:27.261Z,4.30
2019-01-14T10:59:58.101Z,4.40
2019-01-14T11:02:35.121Z,4.40
2019-01-14T11:05:18.341Z,4.40
2019-01-14T11:07:57.402Z,4.50
2019-01-14T11:38:05.152Z,4.60
2019-01-14T11:40:54.685Z,4.60
2019-01-14T11:43:44.885Z,4.60
2019-01-14T11:51:46.862Z,4.60
2019-01-14T11:54:46.370Z,4.60
2019-01-14T11:57:24.828Z,4.70
2019-01-14T12:35:30.162Z,4.20
2019-01-14T12:38:15.660Z,4.20
2019-01-14T12:40:49.637Z,4.30
2019-01-14T12:43:26.510Z,4.30
2019-01-14T12:46:02.734Z,4.30
2019-01-14T14:46:47.732Z,4.50
2019-01-14T14:49:21.421Z,4.50
2019-01-14T14:52:20.833Z,4.60
2019-01-14T14:54:51.945Z,4.50
2019-01-14T14:57:24.137Z,4.50
2019-01-14T14:59:59.526Z,4.40
2019-01-14T15:02:33.831Z,4.40
2019-01-14T15:05:10.225Z,4.40
2019-01-14T15:07:40.937Z,4.30
2019-01-14T15:10:19.552Z,4.30
2019-01-14T15:12:52.507Z,4.30
2019-01-14T15:20:45.025Z,4.30
2019-01-14T15:23:18.235Z,4.30
2019-01-14T15:26:56.591Z,4.30
2019-01-14T15:29:30.876Z,4.20
2019-01-14T15:32:08.783Z,4.20
2019-01-14T15:37:55.682Z,4.20
2019-01-14T15:40:29.399Z,4.20
2019-01-14T15:43:10.605Z,4.20
2019-01-14T15:45:47.891Z,4.20
2019-01-14T15:48:27.740Z,4.20
2019-01-14T15:50:58.922Z,4.20
2019-01-14T15:53:28.784Z,4.20
2019-01-14T15:55:59.284Z,4.20
2019-01-14T15:58:29.245Z,4.20
2019-01-14T16:00:59.121Z,4.10
2019-01-14T16:03:29.160Z,4.20
2019-01-14T16:06:01.314Z,4.20
2019-01-14T16:08:34.272Z,4.20
2019-01-14T16:11:04.199Z,4.20
2019-01-14T16:13:34.347Z,4.20
2019-01-14T16:16:04.373Z,4.20
2019-01-14T16:18:36.299Z,4.20
2019-01-14T16:21:06.387Z,4.20
2019-01-14T16:23:38.819Z,4.10
2019-01-14T16:26:08.900Z,4.10
2019-01-14T16:28:40.021Z,4.10
2019-01-14T16:31:11.296Z,4.00
2019-01-14T16:34:09.825Z,4.00
2019-01-14T16:36:39.851Z,4.00
2019-01-14T16:39:11.944Z,3.90
2019-01-14T16:41:44.355Z,3.90
2019-01-14T16:44:21.313Z,3.90
2019-01-14T16:46:59.472Z,3.90
2019-01-14T16:49:29.698Z,3.90
2019-01-14T16:52:04.900Z,3.90
2019-01-14T16:54:36.726Z,3.90
2019-01-14T16:57:06.599Z,3.90
2019-01-14T16:59:40.565Z,3.90
2019-01-14T17:02:12.100Z,3.90
2019-01-14T17:04:44.011Z,3.90
2019-01-14T17:07:17.483Z,3.90
2019-01-14T17:09:47.390Z,3.90
2019-01-14T17:12:28.852Z,3.90
2019-01-14T17:14:59.256Z,3.90
2019-01-14T17:17:34.099Z,3.90
2019-01-14T17:20:04.490Z,3.90
2019-01-14T17:22:34.674Z,4.00
2019-01-14T17:25:05.518Z,4.00
2019-01-14T17:27:39.261Z,4.00
2019-01-14T17:30:15.206Z,4.00
2019-01-14T17:32:45.140Z,4.00
2019-01-14T17:35:18.440Z,4.00
2019-01-14T17:37:48.563Z,3.90
2019-01-14T17:40:19.761Z,3.90
2019-01-14T17:45:40.296Z,3.80
2019-01-14T17:48:11.726Z,3.80
2019-01-14T17:54:00.756Z,3.70
2019-01-14T17:56:30.977Z,3.70
2019-01-14T17:59:00.975Z,3.70
2019-01-14T18:01:32.863Z,3.60
2019-01-14T18:04:03.295Z,3.60
2019-01-14T18:06:34.433Z,3.60
2019-01-14T18:17:29.065Z,3.60
2019-01-14T18:19:59.466Z,3.70
2019-01-14T18:30:01.964Z,3.70
2019-01-14T18:32:40.145Z,3.70
2019-01-14T18:35:23.434Z,3.60
2019-01-14T18:38:09.378Z,3.60
2019-01-14T18:40:47.144Z,3.60
2019-01-14T18:43:49.633Z,3.60
2019-01-14T18:46:23.573Z,3.60
2019-01-14T18:48:53.593Z,3.60
2019-01-14T18:51:24.125Z,3.60
2019-01-14T18:53:54.262Z,3.60
2019-01-14T18:56:25.182Z,3.60
2019-01-14T18:59:03.884Z,3.60
2019-01-14T19:01:34.167Z,3.60
2019-01-14T19:04:34.921Z,3.60
2019-01-14T19:07:16.614Z,3.60
2019-01-14T19:10:03.951Z,3.60
2019-01-14T19:13:19.287Z,3.70
2019-01-14T19:16:23.725Z,3.70
2019-01-14T19:18:32.663Z,3.70
2019-01-14T19:21:02.995Z,3.70
2019-01-14T19:23:32.979Z,3.70
2019-01-14T19:26:06.014Z,3.70
2019-01-14T19:28:37.570Z,3.70
2019-01-14T19:31:08.474Z,3.80
2019-01-14T19:41:24.106Z,3.80
2019-01-14T19:43:54.179Z,3.80
2019-01-14T19:46:37.246Z,3.80
2019-01-14T19:49:07.805Z,3.80
2019-01-14T19:51:45.436Z,3.90
2019-01-14T19:54:31.551Z,3.90
2019-01-14T19:57:25.018Z,3.90
2019-01-14T20:00:04.045Z,3.90
2019-01-14T20:02:56.288Z,3.90
2019-01-14T20:05:31.572Z,3.80
2019-01-14T20:08:02.021Z,3.80
2019-01-14T20:10:34.226Z,3.80
2019-01-14T20:13:04.244Z,3.80
2019-01-14T20:15:37.238Z,3.80
2019-01-14T20:18:15.695Z,3.70
2019-01-14T20:20:45.869Z,3.70
2019-01-14T20:23:18.679Z,3.70
2019-01-14T20:25:50.857Z,3.70
2019-01-14T20:28:20.791Z,3.70
2019-01-14T20:30:50.851Z,3.70
2019-01-14T20:33:21.003Z,3.70
2019-01-14T20:35:51.352Z,3.70
2019-01-14T20:38:30.321Z,3.70
2019-01-14T20:41:00.283Z,3.70
2019-01-14T20:43:31.123Z,3.70
2019-01-14T20:46:01.355Z,3.70
2019-01-14T20:48:31.564Z,3.60
2019-01-14T20:51:01.451Z,3.60
2019-01-14T20:56:31.351Z,3.50
2019-01-14T20:59:06.683Z,3.50
2019-01-14T21:01:57.265Z,3.50
2019-01-14T21:04:36.413Z,3.50
2019-01-14T21:07:06.713Z,3.40
2019-01-14T21:09:36.740Z,3.30
2019-01-14T21:12:08.998Z,3.30
2019-01-14T21:14:39.089Z,3.30
2019-01-14T21:17:09.509Z,3.20
2019-01-14T21:19:40.580Z,3.20
2019-01-14T21:22:10.733Z,3.20
2019-01-14T21:24:43.120Z,3.20
2019-01-14T21:27:16.645Z,3.20
2019-01-14T21:29:47.907Z,3.10
2019-01-14T21:32:18.269Z,3.10
2019-01-14T21:34:48.465Z,3.10
2019-01-14T21:37:23.815Z,3.10
2019-01-14T21:39:53.727Z,3.10
2019-01-14T21:42:25.512Z,3.10
2019-01-14T21:44:56.366Z,3.10
2019-01-14T21:47:32.640Z,3.10
2019-01-14T21:49:58.459Z,3.10
2019-01-14T21:52:34.072Z,3.10
2019-01-14T21:55:13.424Z,3.10
2019-01-14T21:57:43.313Z,3.10
2019-01-14T22:00:18.016Z,3.00
2019-01-14T22:02:50.194Z,3.10
2019-01-14T22:05:38.250Z,3.00
2019-01-14T22:08:11.213Z,3.00
2019-01-14T22:10:41.305Z,3.00
2019-01-14T22:13:11.484Z,2.90
2019-01-14T22:15:41.323Z,2.90
2019-01-14T22:18:11.229Z,2.90
2019-01-14T22:20:41.524Z,3.00
2019-01-14T22:23:11.920Z,3.00
2019-01-14T22:25:41.863Z,3.00
2019-01-14T22:28:11.808Z,3.00
2019-01-14T22:30:42.365Z,3.00
2019-01-14T22:33:12.324Z,3.00
2019-01-14T22:35:42.218Z,3.00
2019-01-14T22:38:13.556Z,3.00
2019-01-14T22:40:44.913Z,3.00
2019-01-14T22:43:17.799Z,3.00
2019-01-14T22:45:47.712Z,3.00
2019-01-14T22:48:17.957Z,3.00
2019-01-14T22:50:47.771Z,3.00
2019-01-14T22:53:18.027Z,3.00
2019-01-14T22:55:47.959Z,3.00
2019-01-14T22:58:30.803Z,3.00
2019-01-14T23:01:20.155Z,3.00
2019-01-14T23:03:54.481Z,3.00
2019-01-14T23:06:24.289Z,3.00
2019-01-14T23:08:54.149Z,3.10
2019-01-14T23:11:26.963Z,3.10
2019-01-14T23:14:02.035Z,3.10
2019-01-14T23:16:31.889Z,3.10
2019-01-14T23:19:04.273Z,3.10
2019-01-14T23:21:34.063Z,3.10
2019-01-14T23:24:05.384Z,3.10
2019-01-14T23:26:35.184Z,3.20
2019-01-14T23:29:05.457Z,3.20
2019-01-14T23:31:35.688Z,3.20
2019-01-14T23:34:09.003Z,3.20
2019-01-14T23:36:38.898Z,3.20
2019-01-14T23:39:10.752Z,3.20
2019-01-14T23:41:42.415Z,3.20
2019-01-14T23:44:12.235Z,3.20
2019-01-14T23:46:42.024Z,3.10
2019-01-14T23:49:12.460Z,3.10
2019-01-14T23:51:42.250Z,3.00
2019-01-14T23:54:12.047Z,3.00
2019-01-14T23:56:42.593Z,3.00
2019-01-14T23:59:12.402Z,2.90
